createdAt,value
2022-09-17T00:01:04.780Z,20.40
2022-09-17T00:06:21.052Z,17.13
2022-09-17T00:08:58.897Z,19.30
2022-09-17T00:11:35.491Z,19.65
2022-09-17T00:14:10.248Z,22.90
2022-09-17T00:16:48.033Z,20.52
2022-09-17T00:19:23.165Z,20.33
2022-09-17T00:21:53.287Z,21.45
2022-09-17T00:24:28.729Z,24.10
2022-09-17T00:26:59.740Z,22.45
2022-09-17T00:29:40.345Z,24.05
2022-09-17T00:32:15.698Z,25.00
2022-09-17T00:34:56.855Z,22.25
2022-09-17T00:37:37.374Z,26.55
2022-09-17T00:40:19.987Z,21.00
2022-09-17T00:43:01.735Z,21.75
2022-09-17T00:45:39.792Z,24.05
2022-09-17T00:48:12.776Z,22.17
2022-09-17T00:50:48.478Z,21.80
2022-09-17T00:53:28.610Z,20.08
2022-09-17T00:56:16.676Z,22.02
2022-09-17T00:58:48.845Z,21.70
2022-09-17T01:01:21.829Z,23.77
2022-09-17T01:03:59.906Z,24.58
2022-09-17T01:06:52.775Z,23.65
2022-09-17T01:09:42.468Z,21.08
2022-09-17T01:12:49.631Z,19.73
2022-09-17T01:15:48.061Z,17.60
2022-09-17T01:19:01.254Z,16.77
2022-09-17T01:21:44.981Z,18.02
2022-09-17T01:24:41.294Z,19.52
2022-09-17T01:27:45.925Z,18.73
2022-09-17T01:30:56.136Z,18.20
2022-09-17T01:33:44.812Z,15.10
2022-09-17T01:36:37.443Z,15.60
2022-09-17T01:39:31.376Z,14.45
2022-09-17T01:42:28.109Z,12.88
2022-09-17T01:45:09.346Z,12.38
2022-09-17T01:48:03.526Z,11.30
2022-09-17T01:50:57.605Z,12.23
2022-09-17T01:53:51.768Z,9.63
2022-09-17T01:56:34.206Z,14.20
2022-09-17T01:59:23.886Z,11.05
2022-09-17T02:02:24.369Z,9.27
2022-09-17T02:05:26.650Z,9.23
2022-09-17T02:08:07.098Z,9.88
2022-09-17T02:10:57.611Z,9.38
2022-09-17T02:13:41.027Z,10.95
2022-09-17T02:16:44.863Z,11.05
2022-09-17T02:19:31.978Z,11.88
2022-09-17T02:22:15.755Z,15.32
2022-09-17T02:25:14.203Z,9.50
2022-09-17T02:28:03.483Z,7.68
2022-09-17T02:30:39.096Z,12.77
2022-09-17T02:33:20.372Z,10.85
2022-09-17T02:35:55.693Z,10.13
2022-09-17T02:38:37.320Z,8.93
2022-09-17T02:41:16.883Z,8.93
2022-09-17T02:44:09.778Z,9.25
2022-09-17T02:46:49.013Z,8.30
2022-09-17T02:49:50.276Z,9.13
2022-09-17T02:52:45.304Z,9.48
2022-09-17T02:55:48.311Z,7.60
2022-09-17T02:58:34.283Z,14.25
2022-09-17T03:01:12.850Z,5.10
2022-09-17T03:03:56.404Z,5.60
2022-09-17T03:06:26.192Z,8.18
2022-09-17T03:09:08.545Z,6.93
2022-09-17T03:11:44.315Z,8.40
2022-09-17T03:14:23.612Z,7.85
2022-09-17T03:16:53.652Z,8.23
2022-09-17T03:19:23.280Z,6.55
2022-09-17T03:22:04.279Z,6.45
2022-09-17T03:24:36.552Z,6.57
2022-09-17T03:27:09.606Z,6.43
2022-09-17T03:29:43.043Z,5.95
2022-09-17T03:32:24.029Z,5.15
2022-09-17T03:34:56.414Z,5.47
2022-09-17T03:37:37.907Z,5.22
2022-09-17T03:40:05.851Z,4.70
2022-09-17T03:42:38.165Z,6.70
2022-09-17T03:45:10.546Z,6.90
2022-09-17T03:47:43.603Z,6.80
2022-09-17T03:50:19.083Z,5.53
2022-09-17T03:52:48.828Z,8.88
2022-09-17T03:55:22.782Z,7.03
2022-09-17T03:57:51.467Z,4.82
2022-09-17T04:00:23.865Z,5.25
2022-09-17T04:02:57.000Z,9.15
2022-09-17T04:05:37.445Z,6.40
2022-09-17T04:08:07.226Z,5.18
2022-09-17T04:10:49.198Z,4.53
2022-09-17T04:13:19.287Z,8.07
2022-09-17T04:15:58.562Z,4.93
2022-09-17T04:18:34.043Z,5.35
2022-09-17T04:21:04.005Z,8.18
2022-09-17T04:23:46.624Z,4.50
2022-09-17T04:26:13.692Z,6.90
2022-09-17T04:28:49.178Z,6.35
2022-09-17T04:31:25.260Z,7.47
2022-09-17T04:33:52.308Z,7.15
2022-09-17T04:36:24.708Z,5.63
2022-09-17T04:38:54.873Z,7.70
2022-09-17T04:41:21.972Z,6.88
2022-09-17T04:43:59.906Z,6.05
2022-09-17T04:46:37.627Z,8.10
2022-09-17T04:49:16.151Z,6.97
2022-09-17T04:51:51.361Z,6.22
2022-09-17T04:54:26.396Z,9.50
2022-09-17T04:57:01.680Z,6.10
2022-09-17T04:59:37.418Z,6.70
2022-09-17T05:02:31.765Z,8.20
2022-09-17T05:05:10.984Z,7.85
2022-09-17T05:07:44.469Z,7.50
2022-09-17T05:10:21.755Z,6.97
2022-09-17T05:12:59.409Z,9.15
2022-09-17T05:15:37.614Z,7.65
2022-09-17T05:18:18.082Z,8.82
2022-09-17T05:20:55.994Z,6.05
2022-09-17T05:23:33.542Z,7.30
2022-09-17T05:26:03.868Z,7.80
2022-09-17T05:28:36.724Z,9.25
2022-09-17T05:31:06.988Z,7.60
2022-09-17T05:33:47.210Z,7.32
2022-09-17T05:36:18.465Z,6.45
2022-09-17T05:38:56.616Z,8.07
2022-09-17T05:41:25.994Z,6.88
2022-09-17T05:44:01.089Z,7.53
2022-09-17T05:46:30.445Z,6.90
2022-09-17T05:49:03.645Z,8.13
2022-09-17T05:51:36.178Z,7.15
2022-09-17T05:54:15.160Z,8.30
2022-09-17T05:56:53.619Z,10.27
2022-09-17T05:59:20.888Z,8.52
2022-09-17T06:02:04.033Z,7.03
2022-09-17T06:04:35.026Z,6.07
2022-09-17T06:07:09.387Z,9.10
2022-09-17T06:09:42.691Z,7.80
2022-09-17T06:12:12.645Z,5.43
2022-09-17T06:14:41.996Z,8.25
2022-09-17T06:17:11.634Z,8.40
2022-09-17T06:19:44.285Z,5.93
2022-09-17T06:22:21.220Z,5.45
2022-09-17T06:24:55.803Z,5.82
2022-09-17T06:27:34.659Z,8.82
2022-09-17T06:30:02.206Z,5.50
2022-09-17T06:32:39.380Z,5.65
2022-09-17T06:35:11.998Z,7.20
2022-09-17T06:37:42.936Z,6.93
2022-09-17T06:40:10.854Z,5.72
2022-09-17T06:42:51.380Z,11.05
2022-09-17T06:45:33.074Z,12.93
2022-09-17T06:48:16.752Z,7.88
2022-09-17T06:50:46.053Z,9.35
2022-09-17T06:53:21.786Z,11.23
2022-09-17T06:55:54.629Z,6.95
2022-09-17T06:58:21.575Z,4.43
2022-09-17T07:00:54.658Z,6.47
2022-09-17T07:03:29.353Z,9.75
2022-09-17T07:05:57.039Z,9.68
2022-09-17T07:08:35.727Z,6.88
2022-09-17T07:11:08.097Z,7.47
2022-09-17T07:13:45.775Z,6.00
2022-09-17T07:16:13.247Z,5.63
2022-09-17T07:18:50.872Z,7.38
2022-09-17T07:21:24.481Z,4.43
2022-09-17T07:24:00.899Z,5.20
2022-09-17T07:26:36.904Z,3.92
2022-09-17T07:29:09.433Z,4.55
2022-09-17T07:31:37.232Z,3.83
2022-09-17T07:34:08.866Z,5.25
2022-09-17T07:36:39.250Z,6.72
2022-09-17T07:39:08.621Z,10.13
2022-09-17T07:41:35.736Z,6.45
2022-09-17T07:44:09.964Z,6.32
2022-09-17T07:46:40.142Z,3.28
2022-09-17T07:49:07.181Z,10.82
2022-09-17T07:51:37.422Z,6.60
2022-09-17T07:54:07.256Z,3.20
2022-09-17T07:56:45.274Z,11.75
2022-09-17T07:59:26.318Z,5.57
2022-09-17T08:01:53.759Z,3.97
2022-09-17T08:04:34.064Z,6.05
2022-09-17T08:07:11.708Z,4.00
2022-09-17T08:09:50.102Z,3.10
2022-09-17T08:12:28.250Z,4.53
2022-09-17T08:14:59.153Z,5.88
2022-09-17T08:17:26.236Z,6.82
2022-09-17T08:19:56.199Z,2.72
2022-09-17T08:22:31.805Z,3.70
2022-09-17T08:25:04.363Z,2.92
2022-09-17T08:27:50.898Z,7.72
2022-09-17T08:30:20.668Z,2.67
2022-09-17T08:32:59.028Z,6.25
2022-09-17T08:35:29.723Z,5.75
2022-09-17T08:38:02.426Z,4.75
2022-09-17T08:40:32.715Z,6.15
2022-09-17T08:43:08.120Z,3.40
2022-09-17T08:45:37.993Z,3.90
2022-09-17T08:48:22.180Z,7.15
2022-09-17T08:50:55.379Z,7.15
2022-09-17T08:54:01.971Z,12.68
2022-09-17T08:56:32.429Z,11.02
2022-09-17T08:59:41.048Z,8.52
2022-09-17T09:02:37.817Z,5.88
2022-09-17T09:05:18.537Z,4.25
2022-09-17T09:07:54.866Z,8.52
2022-09-17T09:10:33.766Z,4.25
2022-09-17T09:13:12.732Z,3.45
2022-09-17T09:15:48.848Z,2.85
2022-09-17T09:18:29.543Z,8.65
2022-09-17T09:21:30.049Z,5.43
2022-09-17T09:24:03.528Z,5.50
2022-09-17T09:27:09.242Z,3.33
2022-09-17T09:30:03.871Z,8.77
2022-09-17T09:33:07.973Z,6.75
2022-09-17T09:35:45.277Z,4.27
2022-09-17T09:38:51.934Z,5.72
2022-09-17T09:41:55.495Z,4.68
2022-09-17T09:44:27.666Z,5.72
2022-09-17T09:47:21.056Z,6.18
2022-09-17T09:50:02.373Z,4.67
2022-09-17T09:53:06.366Z,6.95
2022-09-17T09:56:03.510Z,3.67
2022-09-17T09:58:41.303Z,4.50
2022-09-17T10:01:34.427Z,4.78
2022-09-17T10:04:04.584Z,4.43
2022-09-17T10:06:41.797Z,5.55
2022-09-17T10:09:11.554Z,4.82
2022-09-17T10:11:42.555Z,4.75
2022-09-17T10:14:24.254Z,4.80
2022-09-17T10:17:25.636Z,4.10
2022-09-17T10:20:22.096Z,5.45
2022-09-17T10:22:53.256Z,6.53
2022-09-17T10:25:32.490Z,7.68
2022-09-17T10:28:39.421Z,7.80
2022-09-17T10:34:05.229Z,4.72
2022-09-17T10:36:43.920Z,4.45
2022-09-17T10:39:35.664Z,3.63
2022-09-17T10:42:15.061Z,5.63
2022-09-17T10:45:34.664Z,6.30
2022-09-17T10:48:08.702Z,6.43
2022-09-17T10:50:39.219Z,4.88
2022-09-17T10:53:07.537Z,6.93
2022-09-17T10:55:34.776Z,6.22
2022-09-17T10:58:07.889Z,8.40
2022-09-17T11:01:05.793Z,5.95
2022-09-17T11:03:51.732Z,6.15
2022-09-17T11:06:57.397Z,5.18
2022-09-17T11:09:32.559Z,5.05
2022-09-17T11:12:27.523Z,3.40
2022-09-17T11:15:20.616Z,5.57
2022-09-17T11:18:28.586Z,7.38
2022-09-17T11:21:14.411Z,4.68
2022-09-17T11:23:47.983Z,11.20
2022-09-17T11:26:35.765Z,4.10
2022-09-17T11:29:50.990Z,4.63
2022-09-17T11:32:34.997Z,5.68
2022-09-17T11:35:20.277Z,10.00
2022-09-17T11:38:09.890Z,6.45
2022-09-17T11:40:45.062Z,5.80
2022-09-17T11:43:24.596Z,5.47
2022-09-17T11:46:29.596Z,5.47
2022-09-17T11:49:18.176Z,3.30
2022-09-17T11:52:32.323Z,4.80
2022-09-17T11:55:26.893Z,7.40
2022-09-17T11:58:03.608Z,7.68
2022-09-17T12:00:43.189Z,4.45
2022-09-17T12:03:35.662Z,7.78
2022-09-17T12:06:26.091Z,8.38
2022-09-17T12:09:02.107Z,8.57
2022-09-17T12:11:42.634Z,4.78
2022-09-17T12:14:31.595Z,5.82
2022-09-17T12:17:03.891Z,3.88
2022-09-17T12:19:37.703Z,4.50
2022-09-17T12:22:21.382Z,5.32
2022-09-17T12:24:57.990Z,3.88
2022-09-17T12:27:30.962Z,4.82
2022-09-17T12:30:26.635Z,5.25
2022-09-17T12:33:12.568Z,8.15
2022-09-17T12:36:04.005Z,7.28
2022-09-17T12:39:02.903Z,4.82
2022-09-17T12:41:36.861Z,5.85
2022-09-17T12:44:40.681Z,5.85
2022-09-17T12:47:33.103Z,7.88
2022-09-17T12:50:18.590Z,4.65
2022-09-17T12:53:02.644Z,6.72
2022-09-17T12:55:56.671Z,5.70
2022-09-17T12:58:32.242Z,5.18
2022-09-17T13:01:11.315Z,4.03
2022-09-17T13:04:00.794Z,4.32
2022-09-17T13:07:08.637Z,3.63
2022-09-17T13:10:22.005Z,11.35
2022-09-17T13:13:05.672Z,4.70
2022-09-17T13:16:00.632Z,6.30
2022-09-17T13:18:59.397Z,7.32
2022-09-17T13:22:00.506Z,5.32
2022-09-17T13:24:37.634Z,5.22
2022-09-17T13:27:27.046Z,6.90
2022-09-17T13:29:59.508Z,8.18
2022-09-17T13:32:33.594Z,9.00
2022-09-17T13:35:15.390Z,15.25
2022-09-17T13:37:59.211Z,20.52
2022-09-17T13:40:36.151Z,19.75
2022-09-17T13:43:12.299Z,11.65
2022-09-17T13:46:29.555Z,9.55
2022-09-17T13:49:19.684Z,12.10
2022-09-17T13:51:50.065Z,9.15
2022-09-17T13:54:32.979Z,8.60
2022-09-17T13:57:14.609Z,5.43
2022-09-17T14:00:01.303Z,9.27
2022-09-17T14:02:49.888Z,7.75
2022-09-17T14:05:54.469Z,9.93
2022-09-17T14:08:52.042Z,4.75
2022-09-17T14:11:28.659Z,5.28
2022-09-17T14:14:13.703Z,9.93
2022-09-17T14:16:53.530Z,5.45
2022-09-17T14:20:02.693Z,3.83
2022-09-17T14:22:35.439Z,10.05
2022-09-17T14:25:25.455Z,5.65
2022-09-17T14:28:06.250Z,9.10
2022-09-17T14:30:38.104Z,4.35
2022-09-17T14:33:18.828Z,4.60
2022-09-17T14:36:27.153Z,4.05
2022-09-17T14:38:57.697Z,3.28
2022-09-17T14:41:36.630Z,4.22
2022-09-17T14:44:28.074Z,3.70
2022-09-17T14:47:12.055Z,7.63
2022-09-17T14:49:58.522Z,6.60
2022-09-17T14:52:35.426Z,4.40
2022-09-17T14:55:25.131Z,10.43
2022-09-17T14:58:01.412Z,7.60
2022-09-17T15:00:54.584Z,6.65
2022-09-17T15:03:29.876Z,4.63
2022-09-17T15:06:02.422Z,8.10
2022-09-17T15:08:30.368Z,9.35
2022-09-17T15:11:12.062Z,16.45
2022-09-17T15:13:56.912Z,14.48
2022-09-17T15:16:34.834Z,8.07
2022-09-17T15:19:14.697Z,6.28
2022-09-17T15:21:53.161Z,6.65
2022-09-17T15:24:34.889Z,6.25
2022-09-17T15:27:18.664Z,3.85
2022-09-17T15:29:56.519Z,7.65
2022-09-17T15:32:30.135Z,5.43
2022-09-17T15:35:17.072Z,4.15
2022-09-17T15:44:28.630Z,5.03
2022-09-17T15:47:39.556Z,5.30
2022-09-17T15:50:21.883Z,4.22
2022-09-17T15:53:01.958Z,3.67
2022-09-17T15:55:46.797Z,5.78
2022-09-17T15:58:35.500Z,9.15
2022-09-17T16:01:17.699Z,15.05
2022-09-17T16:03:44.678Z,6.53
2022-09-17T16:06:23.308Z,6.88
2022-09-17T16:08:52.716Z,7.30
2022-09-17T16:11:44.433Z,6.22
2022-09-17T16:14:17.272Z,4.97
2022-09-17T16:16:58.054Z,5.18
2022-09-17T16:19:33.130Z,9.10
2022-09-17T16:22:02.172Z,11.90
2022-09-17T16:24:43.324Z,9.02
2022-09-17T16:27:32.348Z,4.15
2022-09-17T16:30:09.568Z,4.35
2022-09-17T16:32:52.955Z,3.10
2022-09-17T16:35:31.111Z,7.20
2022-09-17T16:38:06.629Z,7.40
2022-09-17T16:40:46.808Z,6.10
2022-09-17T16:43:17.555Z,3.95
2022-09-17T16:46:00.676Z,8.77
2022-09-17T16:48:42.346Z,6.72
2022-09-17T16:51:17.054Z,4.03
2022-09-17T16:53:52.661Z,9.02
2022-09-17T16:56:29.491Z,7.07
2022-09-17T16:59:03.690Z,3.20
2022-09-17T17:01:36.101Z,4.05
2022-09-17T17:04:08.550Z,4.90
2022-09-17T17:06:57.116Z,4.95
2022-09-17T17:09:45.916Z,3.33
2022-09-17T17:12:24.839Z,6.13
2022-09-17T17:15:03.183Z,3.75
2022-09-17T17:17:39.315Z,3.28
2022-09-17T17:20:24.304Z,9.50
2022-09-17T17:23:01.355Z,7.57
2022-09-17T17:25:36.995Z,10.70
2022-09-17T17:28:09.640Z,7.90
2022-09-17T17:30:51.472Z,4.72
2022-09-17T17:33:27.010Z,9.15
2022-09-17T17:36:08.947Z,9.75
2022-09-17T17:38:49.583Z,5.57
2022-09-17T17:41:18.236Z,10.65
2022-09-17T17:44:02.922Z,5.03
2022-09-17T17:46:39.014Z,8.20
2022-09-17T17:49:23.562Z,6.75
2022-09-17T17:52:03.790Z,5.88
2022-09-17T17:57:36.351Z,6.68
2022-09-17T18:00:10.446Z,9.65
2022-09-17T18:02:53.062Z,8.73
2022-09-17T18:05:25.814Z,7.15
2022-09-17T18:08:06.001Z,8.85
2022-09-17T18:10:39.666Z,6.13
2022-09-17T18:16:01.289Z,7.47
2022-09-17T18:18:44.820Z,6.50
2022-09-17T18:21:21.849Z,9.98
2022-09-17T18:24:01.894Z,9.50
2022-09-17T18:26:41.716Z,6.05
2022-09-17T18:29:14.447Z,4.68
2022-09-17T18:31:49.748Z,5.18
2022-09-17T18:34:33.722Z,9.00
2022-09-17T18:37:10.243Z,5.88
2022-09-17T18:40:04.396Z,6.47
2022-09-17T18:42:37.462Z,8.43
2022-09-17T18:45:10.174Z,10.93
2022-09-17T18:47:47.545Z,9.73
2022-09-17T18:50:34.678Z,6.25
2022-09-17T18:53:07.222Z,9.05
2022-09-17T18:55:39.705Z,8.85
2022-09-17T18:58:20.963Z,9.35
2022-09-17T19:04:02.591Z,12.45
2022-09-17T19:06:42.562Z,9.13
2022-09-17T19:09:30.693Z,10.25
2022-09-17T19:12:09.821Z,10.63
2022-09-17T19:14:38.723Z,9.70
2022-09-17T19:17:14.169Z,8.48
2022-09-17T19:19:49.619Z,9.95
2022-09-17T19:22:21.133Z,14.48
2022-09-17T19:25:03.238Z,12.35
2022-09-17T19:27:43.520Z,13.70
2022-09-17T19:30:15.828Z,11.60
2022-09-17T19:32:48.187Z,7.55
2022-09-17T19:35:23.426Z,7.43
2022-09-17T19:38:13.100Z,7.57
2022-09-17T19:40:58.411Z,7.93
2022-09-17T19:43:34.283Z,9.93
2022-09-17T19:46:21.372Z,11.00
2022-09-17T19:49:11.227Z,13.05
2022-09-17T19:51:46.852Z,15.10
2022-09-17T19:54:28.355Z,15.15
2022-09-17T19:57:03.657Z,14.48
2022-09-17T19:59:41.288Z,16.10
2022-09-17T20:02:26.376Z,14.77
2022-09-17T20:04:58.786Z,16.73
2022-09-17T20:10:22.832Z,15.75
2022-09-17T20:13:04.577Z,10.50
2022-09-17T20:15:42.361Z,11.10
2022-09-17T20:18:23.455Z,9.45
2022-09-17T20:21:10.630Z,8.25
2022-09-17T20:23:46.059Z,7.65
2022-09-17T20:26:25.126Z,8.63
2022-09-17T20:29:06.257Z,10.00
2022-09-17T20:31:51.229Z,11.63
2022-09-17T20:34:32.459Z,9.50
2022-09-17T20:37:14.046Z,8.43
2022-09-17T20:39:52.221Z,10.80
2022-09-17T20:42:32.722Z,12.50
2022-09-17T20:45:05.709Z,8.50
2022-09-17T20:47:44.177Z,11.07
2022-09-17T20:50:22.710Z,8.65
2022-09-17T20:52:57.079Z,11.88
2022-09-17T20:55:35.122Z,11.10
2022-09-17T20:58:22.474Z,12.02
2022-09-17T21:01:17.834Z,10.38
2022-09-17T21:03:56.668Z,10.05
2022-09-17T21:06:42.399Z,13.25
2022-09-17T21:09:23.011Z,14.10
2022-09-17T21:12:07.232Z,11.45
2022-09-17T21:14:42.675Z,12.82
2022-09-17T21:17:18.523Z,10.23
2022-09-17T21:19:59.720Z,10.40
2022-09-17T21:22:32.325Z,9.15
2022-09-17T21:25:18.762Z,14.27
2022-09-17T21:27:51.468Z,16.10
2022-09-17T21:30:29.857Z,18.40
2022-09-17T21:33:07.695Z,20.08
2022-09-17T21:35:42.136Z,19.27
2022-09-17T21:38:24.485Z,21.77
2022-09-17T21:41:07.955Z,16.50
2022-09-17T21:43:44.067Z,14.70
2022-09-17T21:46:17.947Z,18.88
2022-09-17T21:49:08.524Z,21.45
2022-09-17T21:51:42.555Z,21.50
2022-09-17T21:54:17.199Z,22.42
2022-09-17T21:56:54.537Z,17.13
2022-09-17T21:59:30.160Z,16.55
2022-09-17T22:02:05.845Z,18.92
2022-09-17T22:04:39.603Z,17.98
2022-09-17T22:09:40.395Z,15.02
2022-09-17T22:12:15.737Z,19.52
2022-09-17T22:14:57.711Z,22.02
2022-09-17T22:17:36.743Z,21.67
2022-09-17T22:20:12.582Z,24.15
2022-09-17T22:22:53.647Z,22.92
2022-09-17T22:28:21.057Z,16.92
2022-09-17T22:31:09.919Z,18.67
2022-09-17T22:33:50.554Z,24.70
2022-09-17T22:36:25.861Z,21.35
2022-09-17T22:39:04.758Z,22.08
2022-09-17T22:41:45.919Z,21.15
2022-09-17T22:44:24.633Z,21.83
2022-09-17T22:47:01.744Z,26.33
2022-09-17T22:49:39.730Z,25.23
2022-09-17T22:52:17.820Z,20.92
2022-09-17T22:54:53.252Z,23.13
2022-09-17T22:57:28.540Z,22.33
2022-09-17T23:00:10.673Z,20.85
2022-09-17T23:02:51.683Z,21.35
2022-09-17T23:05:33.529Z,22.70
2022-09-17T23:08:12.144Z,20.90
2022-09-17T23:10:58.834Z,22.65
2022-09-17T23:13:32.688Z,22.85
2022-09-17T23:16:11.529Z,25.52
2022-09-17T23:18:49.701Z,23.40
2022-09-17T23:21:27.591Z,27.05
2022-09-17T23:24:08.734Z,24.60
2022-09-17T23:26:44.305Z,24.73
2022-09-17T23:29:28.733Z,25.52
2022-09-17T23:32:09.385Z,25.23
2022-09-17T23:34:50.666Z,27.35
2022-09-17T23:37:40.338Z,26.52
2022-09-17T23:40:10.730Z,29.55
2022-09-17T23:42:55.068Z,26.38
2022-09-17T23:45:31.789Z,23.48
2022-09-17T23:48:11.199Z,29.20
2022-09-17T23:50:46.463Z,32.80
2022-09-17T23:53:23.541Z,31.90
2022-09-17T23:56:00.506Z,30.13
2022-09-17T23:58:34.131Z,27.75
